sensor_id;sensor_type;location;lat;lon;timestamp;P1;durP1;ratioP1;P2;durP2;ratioP2
18194;SDS011;9223;50.988;3.162;2023-04-03T00:04:28;10.73;;;7.25;;
18194;SDS011;9223;50.988;3.162;2023-04-03T00:10:33;10.55;;;8.13;;
18194;SDS011;9223;50.988;3.162;2023-04-03T00:16:36;10.13;;;8.52;;
18194;SDS011;9223;50.988;3.162;2023-04-03T00:22:40;10.00;;;7.88;;
18194;SDS011;9223;50.988;3.162;2023-04-03T00:28:45;8.98;;;7.78;;
18194;SDS011;9223;50.988;3.162;2023-04-03T00:34:48;11.23;;;8.07;;
18194;SDS011;9223;50.988;3.162;2023-04-03T00:40:52;10.65;;;7.97;;
18194;SDS011;9223;50.988;3.162;2023-04-03T00:46:57;12.48;;;8.10;;
18194;SDS011;9223;50.988;3.162;2023-04-03T00:53:01;10.93;;;8.40;;
18194;SDS011;9223;50.988;3.162;2023-04-03T00:59:06;9.45;;;7.28;;
18194;SDS011;9223;50.988;3.162;2023-04-03T01:05:12;11.77;;;7.97;;
18194;SDS011;9223;50.988;3.162;2023-04-03T01:11:20;9.32;;;7.55;;
18194;SDS011;9223;50.988;3.162;2023-04-03T01:17:28;10.52;;;7.30;;
18194;SDS011;9223;50.988;3.162;2023-04-03T01:23:42;9.25;;;6.95;;
18194;SDS011;9223;50.988;3.162;2023-04-03T01:29:49;10.13;;;7.03;;
18194;SDS011;9223;50.988;3.162;2023-04-03T01:35:54;9.70;;;6.82;;
18194;SDS011;9223;50.988;3.162;2023-04-03T01:41:58;8.80;;;6.80;;
18194;SDS011;9223;50.988;3.162;2023-04-03T01:48:01;9.70;;;7.28;;
18194;SDS011;9223;50.988;3.162;2023-04-03T01:54:06;10.65;;;7.90;;
18194;SDS011;9223;50.988;3.162;2023-04-03T02:00:10;12.05;;;8.23;;
18194;SDS011;9223;50.988;3.162;2023-04-03T02:06:14;11.45;;;8.07;;
18194;SDS011;9223;50.988;3.162;2023-04-03T02:12:18;10.20;;;7.97;;
18194;SDS011;9223;50.988;3.162;2023-04-03T02:18:22;9.80;;;8.25;;
18194;SDS011;9223;50.988;3.162;2023-04-03T02:24:26;9.18;;;7.45;;
18194;SDS011;9223;50.988;3.162;2023-04-03T02:30:31;12.68;;;7.07;;
18194;SDS011;9223;50.988;3.162;2023-04-03T02:36:35;8.10;;;6.95;;
18194;SDS011;9223;50.988;3.162;2023-04-03T02:42:39;9.98;;;6.95;;
18194;SDS011;9223;50.988;3.162;2023-04-03T02:48:44;9.10;;;6.57;;
18194;SDS011;9223;50.988;3.162;2023-04-03T02:54:47;9.43;;;7.40;;
18194;SDS011;9223;50.988;3.162;2023-04-03T03:00:51;9.02;;;7.00;;
18194;SDS011;9223;50.988;3.162;2023-04-03T03:06:56;9.00;;;7.65;;
18194;SDS011;9223;50.988;3.162;2023-04-03T03:12:59;9.82;;;6.47;;
18194;SDS011;9223;50.988;3.162;2023-04-03T03:19:03;8.23;;;6.45;;
18194;SDS011;9223;50.988;3.162;2023-04-03T03:25:09;7.57;;;6.55;;
18194;SDS011;9223;50.988;3.162;2023-04-03T03:31:13;9.18;;;7.38;;
18194;SDS011;9223;50.988;3.162;2023-04-03T03:37:16;11.50;;;6.97;;
18194;SDS011;9223;50.988;3.162;2023-04-03T03:43:21;8.77;;;7.57;;
18194;SDS011;9223;50.988;3.162;2023-04-03T03:49:25;9.50;;;7.60;;
18194;SDS011;9223;50.988;3.162;2023-04-03T03:55:28;9.75;;;7.80;;
18194;SDS011;9223;50.988;3.162;2023-04-03T04:01:33;10.95;;;8.05;;
18194;SDS011;9223;50.988;3.162;2023-04-03T04:07:37;9.95;;;8.35;;
18194;SDS011;9223;50.988;3.162;2023-04-03T04:13:40;11.00;;;8.18;;
18194;SDS011;9223;50.988;3.162;2023-04-03T04:19:45;9.60;;;7.50;;
18194;SDS011;9223;50.988;3.162;2023-04-03T04:25:49;11.60;;;8.90;;
18194;SDS011;9223;50.988;3.162;2023-04-03T04:31:53;9.45;;;8.40;;
18194;SDS011;9223;50.988;3.162;2023-04-03T04:37:58;10.05;;;8.20;;
18194;SDS011;9223;50.988;3.162;2023-04-03T04:44:02;11.45;;;8.55;;
18194;SDS011;9223;50.988;3.162;2023-04-03T04:50:06;15.13;;;9.40;;
18194;SDS011;9223;50.988;3.162;2023-04-03T04:56:10;14.50;;;9.45;;
18194;SDS011;9223;50.988;3.162;2023-04-03T05:02:14;12.60;;;9.90;;
18194;SDS011;9223;50.988;3.162;2023-04-03T05:08:18;11.90;;;9.18;;
18194;SDS011;9223;50.988;3.162;2023-04-03T05:14:22;13.52;;;9.20;;
18194;SDS011;9223;50.988;3.162;2023-04-03T05:20:26;10.65;;;8.32;;
18194;SDS011;9223;50.988;3.162;2023-04-03T05:26:30;14.13;;;8.73;;
18194;SDS011;9223;50.988;3.162;2023-04-03T05:32:35;12.25;;;8.38;;
18194;SDS011;9223;50.988;3.162;2023-04-03T05:38:38;9.70;;;7.75;;
18194;SDS011;9223;50.988;3.162;2023-04-03T05:44:42;12.35;;;7.78;;
18194;SDS011;9223;50.988;3.162;2023-04-03T05:50:49;12.55;;;8.15;;
18194;SDS011;9223;50.988;3.162;2023-04-03T05:56:57;11.02;;;7.70;;
18194;SDS011;9223;50.988;3.162;2023-04-03T06:03:01;12.80;;;7.20;;
18194;SDS011;9223;50.988;3.162;2023-04-03T06:09:06;10.20;;;8.32;;
18194;SDS011;9223;50.988;3.162;2023-04-03T06:15:09;13.27;;;9.23;;
18194;SDS011;9223;50.988;3.162;2023-04-03T06:21:13;19.15;;;10.20;;
18194;SDS011;9223;50.988;3.162;2023-04-03T06:27:18;13.65;;;9.00;;
18194;SDS011;9223;50.988;3.162;2023-04-03T06:33:21;14.63;;;8.63;;
18194;SDS011;9223;50.988;3.162;2023-04-03T06:39:25;9.50;;;7.40;;
18194;SDS011;9223;50.988;3.162;2023-04-03T06:45:30;8.35;;;6.35;;
18194;SDS011;9223;50.988;3.162;2023-04-03T06:51:34;10.63;;;6.95;;
18194;SDS011;9223;50.988;3.162;2023-04-03T06:57:38;10.15;;;7.18;;
18194;SDS011;9223;50.988;3.162;2023-04-03T07:03:43;6.95;;;6.25;;
18194;SDS011;9223;50.988;3.162;2023-04-03T07:09:47;7.93;;;5.57;;
18194;SDS011;9223;50.988;3.162;2023-04-03T07:15:51;8.73;;;5.65;;
18194;SDS011;9223;50.988;3.162;2023-04-03T07:21:56;7.07;;;5.18;;
18194;SDS011;9223;50.988;3.162;2023-04-03T07:28:00;7.38;;;5.20;;
18194;SDS011;9223;50.988;3.162;2023-04-03T07:34:04;6.35;;;4.90;;
18194;SDS011;9223;50.988;3.162;2023-04-03T07:40:10;5.45;;;4.63;;
18194;SDS011;9223;50.988;3.162;2023-04-03T07:46:14;5.28;;;4.43;;
18194;SDS011;9223;50.988;3.162;2023-04-03T07:52:18;5.88;;;4.63;;
18194;SDS011;9223;50.988;3.162;2023-04-03T07:58:23;4.70;;;4.30;;
18194;SDS011;9223;50.988;3.162;2023-04-03T08:04:27;4.20;;;3.85;;
18194;SDS011;9223;50.988;3.162;2023-04-03T08:10:32;6.53;;;4.68;;
18194;SDS011;9223;50.988;3.162;2023-04-03T08:16:37;4.25;;;3.78;;
18194;SDS011;9223;50.988;3.162;2023-04-03T08:22:41;5.13;;;4.43;;
18194;SDS011;9223;50.988;3.162;2023-04-03T08:28:44;6.05;;;3.10;;
18194;SDS011;9223;50.988;3.162;2023-04-03T08:34:49;6.10;;;3.90;;
18194;SDS011;9223;50.988;3.162;2023-04-03T08:41:01;5.93;;;4.38;;
18194;SDS011;9223;50.988;3.162;2023-04-03T08:47:10;7.18;;;4.68;;
18194;SDS011;9223;50.988;3.162;2023-04-03T08:53:17;9.05;;;5.22;;
18194;SDS011;9223;50.988;3.162;2023-04-03T08:59:24;7.65;;;5.68;;
18194;SDS011;9223;50.988;3.162;2023-04-03T09:05:32;9.20;;;6.20;;
18194;SDS011;9223;50.988;3.162;2023-04-03T09:11:44;6.60;;;6.00;;
18194;SDS011;9223;50.988;3.162;2023-04-03T09:17:53;8.18;;;6.35;;
18194;SDS011;9223;50.988;3.162;2023-04-03T09:23:58;10.45;;;6.38;;
18194;SDS011;9223;50.988;3.162;2023-04-03T09:30:04;13.95;;;7.18;;
18194;SDS011;9223;50.988;3.162;2023-04-03T09:36:08;9.63;;;6.80;;
18194;SDS011;9223;50.988;3.162;2023-04-03T09:42:14;7.82;;;5.40;;
18194;SDS011;9223;50.988;3.162;2023-04-03T09:48:22;6.97;;;5.05;;
18194;SDS011;9223;50.988;3.162;2023-04-03T09:54:31;7.18;;;5.55;;
18194;SDS011;9223;50.988;3.162;2023-04-03T10:00:35;7.40;;;6.13;;
18194;SDS011;9223;50.988;3.162;2023-04-03T10:06:42;7.47;;;5.97;;
18194;SDS011;9223;50.988;3.162;2023-04-03T10:12:48;7.10;;;4.88;;
18194;SDS011;9223;50.988;3.162;2023-04-03T10:18:54;5.20;;;3.83;;
18194;SDS011;9223;50.988;3.162;2023-04-03T10:25:03;10.13;;;5.55;;
18194;SDS011;9223;50.988;3.162;2023-04-03T10:31:09;9.93;;;6.05;;
18194;SDS011;9223;50.988;3.162;2023-04-03T10:37:18;7.25;;;5.15;;
18194;SDS011;9223;50.988;3.162;2023-04-03T10:43:27;7.15;;;4.43;;
18194;SDS011;9223;50.988;3.162;2023-04-03T10:49:38;4.07;;;3.15;;
18194;SDS011;9223;50.988;3.162;2023-04-03T10:55:59;4.82;;;3.47;;
18194;SDS011;9223;50.988;3.162;2023-04-03T11:02:07;4.55;;;2.85;;
18194;SDS011;9223;50.988;3.162;2023-04-03T11:08:21;4.78;;;2.97;;
18194;SDS011;9223;50.988;3.162;2023-04-03T11:14:29;7.18;;;3.70;;
18194;SDS011;9223;50.988;3.162;2023-04-03T11:20:37;6.60;;;3.47;;
18194;SDS011;9223;50.988;3.162;2023-04-03T11:26:42;3.67;;;2.67;;
18194;SDS011;9223;50.988;3.162;2023-04-03T11:32:59;4.05;;;2.78;;
18194;SDS011;9223;50.988;3.162;2023-04-03T11:39:09;4.07;;;2.78;;
18194;SDS011;9223;50.988;3.162;2023-04-03T11:45:24;3.42;;;2.55;;
18194;SDS011;9223;50.988;3.162;2023-04-03T11:51:38;5.80;;;2.75;;
18194;SDS011;9223;50.988;3.162;2023-04-03T11:57:50;4.28;;;2.38;;
18194;SDS011;9223;50.988;3.162;2023-04-03T12:04:08;5.53;;;2.50;;
18194;SDS011;9223;50.988;3.162;2023-04-03T12:10:17;3.00;;;1.70;;
18194;SDS011;9223;50.988;3.162;2023-04-03T12:16:41;4.63;;;2.35;;
18194;SDS011;9223;50.988;3.162;2023-04-03T12:23:01;2.42;;;2.00;;
18194;SDS011;9223;50.988;3.162;2023-04-03T12:29:17;2.00;;;1.80;;
18194;SDS011;9223;50.988;3.162;2023-04-03T12:35:23;2.05;;;1.60;;
18194;SDS011;9223;50.988;3.162;2023-04-03T12:41:30;1.90;;;1.70;;
18194;SDS011;9223;50.988;3.162;2023-04-03T12:47:37;1.92;;;1.63;;
18194;SDS011;9223;50.988;3.162;2023-04-03T12:53:42;2.75;;;1.70;;
18194;SDS011;9223;50.988;3.162;2023-04-03T12:59:47;4.68;;;1.75;;
18194;SDS011;9223;50.988;3.162;2023-04-03T13:05:51;3.45;;;1.88;;
18194;SDS011;9223;50.988;3.162;2023-04-03T13:11:56;3.55;;;1.48;;
18194;SDS011;9223;50.988;3.162;2023-04-03T13:18:00;4.50;;;2.10;;
18194;SDS011;9223;50.988;3.162;2023-04-03T13:24:04;3.25;;;1.75;;
18194;SDS011;9223;50.988;3.162;2023-04-03T13:30:23;3.03;;;2.40;;
18194;SDS011;9223;50.988;3.162;2023-04-03T13:36:29;2.65;;;2.10;;
18194;SDS011;9223;50.988;3.162;2023-04-03T13:42:34;3.13;;;1.85;;
18194;SDS011;9223;50.988;3.162;2023-04-03T13:48:41;2.38;;;1.85;;
18194;SDS011;9223;50.988;3.162;2023-04-03T13:54:45;2.67;;;1.92;;
18194;SDS011;9223;50.988;3.162;2023-04-03T14:00:50;2.70;;;1.70;;
18194;SDS011;9223;50.988;3.162;2023-04-03T14:06:56;2.50;;;1.70;;
18194;SDS011;9223;50.988;3.162;2023-04-03T14:12:59;5.82;;;2.00;;
18194;SDS011;9223;50.988;3.162;2023-04-03T14:19:03;2.78;;;1.83;;
18194;SDS011;9223;50.988;3.162;2023-04-03T14:25:09;4.25;;;2.05;;
18194;SDS011;9223;50.988;3.162;2023-04-03T14:31:12;4.50;;;1.90;;
18194;SDS011;9223;50.988;3.162;2023-04-03T14:37:17;4.22;;;1.85;;
18194;SDS011;9223;50.988;3.162;2023-04-03T14:43:22;4.38;;;2.00;;
18194;SDS011;9223;50.988;3.162;2023-04-03T14:49:27;4.80;;;1.52;;
18194;SDS011;9223;50.988;3.162;2023-04-03T14:55:31;2.97;;;2.13;;
18194;SDS011;9223;50.988;3.162;2023-04-03T15:01:37;2.28;;;1.77;;
18194;SDS011;9223;50.988;3.162;2023-04-03T15:07:41;4.40;;;1.90;;
18194;SDS011;9223;50.988;3.162;2023-04-03T15:13:45;3.63;;;1.95;;
18194;SDS011;9223;50.988;3.162;2023-04-03T15:19:50;3.95;;;1.40;;
18194;SDS011;9223;50.988;3.162;2023-04-03T15:25:54;2.80;;;1.70;;
18194;SDS011;9223;50.988;3.162;2023-04-03T15:31:57;2.25;;;1.65;;
18194;SDS011;9223;50.988;3.162;2023-04-03T15:38:02;2.53;;;1.80;;
18194;SDS011;9223;50.988;3.162;2023-04-03T15:44:06;3.97;;;1.33;;
18194;SDS011;9223;50.988;3.162;2023-04-03T15:50:09;2.53;;;1.50;;
18194;SDS011;9223;50.988;3.162;2023-04-03T15:56:15;5.78;;;1.92;;
18194;SDS011;9223;50.988;3.162;2023-04-03T16:02:19;2.72;;;1.67;;
18194;SDS011;9223;50.988;3.162;2023-04-03T16:08:22;3.45;;;1.95;;
18194;SDS011;9223;50.988;3.162;2023-04-03T16:14:27;3.75;;;2.22;;
18194;SDS011;9223;50.988;3.162;2023-04-03T16:20:31;2.70;;;2.03;;
18194;SDS011;9223;50.988;3.162;2023-04-03T16:26:35;5.15;;;2.05;;
18194;SDS011;9223;50.988;3.162;2023-04-03T16:32:40;3.38;;;2.00;;
18194;SDS011;9223;50.988;3.162;2023-04-03T16:38:43;1.88;;;1.70;;
18194;SDS011;9223;50.988;3.162;2023-04-03T16:44:47;3.63;;;2.00;;
18194;SDS011;9223;50.988;3.162;2023-04-03T16:50:52;5.82;;;2.20;;
18194;SDS011;9223;50.988;3.162;2023-04-03T16:56:55;2.63;;;2.05;;
18194;SDS011;9223;50.988;3.162;2023-04-03T17:02:59;2.85;;;1.98;;
18194;SDS011;9223;50.988;3.162;2023-04-03T17:09:04;4.63;;;1.55;;
18194;SDS011;9223;50.988;3.162;2023-04-03T17:15:08;3.30;;;2.00;;
18194;SDS011;9223;50.988;3.162;2023-04-03T17:21:12;2.63;;;1.60;;
18194;SDS011;9223;50.988;3.162;2023-04-03T17:27:17;3.45;;;1.90;;
18194;SDS011;9223;50.988;3.162;2023-04-03T17:33:21;3.55;;;1.48;;
18194;SDS011;9223;50.988;3.162;2023-04-03T17:39:24;1.65;;;1.48;;
18194;SDS011;9223;50.988;3.162;2023-04-03T17:45:29;1.95;;;1.38;;
18194;SDS011;9223;50.988;3.162;2023-04-03T17:51:33;3.45;;;1.13;;
18194;SDS011;9223;50.988;3.162;2023-04-03T17:57:37;2.00;;;1.60;;
18194;SDS011;9223;50.988;3.162;2023-04-03T18:03:42;2.90;;;1.27;;
18194;SDS011;9223;50.988;3.162;2023-04-03T18:09:46;2.10;;;1.50;;
18194;SDS011;9223;50.988;3.162;2023-04-03T18:15:50;5.63;;;1.83;;
18194;SDS011;9223;50.988;3.162;2023-04-03T18:21:55;2.10;;;1.13;;
18194;SDS011;9223;50.988;3.162;2023-04-03T18:27:59;1.60;;;1.35;;
18194;SDS011;9223;50.988;3.162;2023-04-03T18:34:06;5.72;;;1.63;;
18194;SDS011;9223;50.988;3.162;2023-04-03T18:40:12;2.85;;;1.50;;
18194;SDS011;9223;50.988;3.162;2023-04-03T18:46:15;3.53;;;1.88;;
18194;SDS011;9223;50.988;3.162;2023-04-03T18:52:20;3.08;;;1.45;;
18194;SDS011;9223;50.988;3.162;2023-04-03T18:58:26;2.15;;;1.60;;
18194;SDS011;9223;50.988;3.162;2023-04-03T19:04:30;4.75;;;2.30;;
18194;SDS011;9223;50.988;3.162;2023-04-03T19:10:34;5.97;;;2.25;;
18194;SDS011;9223;50.988;3.162;2023-04-03T19:16:38;4.07;;;2.35;;
18194;SDS011;9223;50.988;3.162;2023-04-03T19:22:42;4.80;;;2.47;;
18194;SDS011;9223;50.988;3.162;2023-04-03T19:28:45;3.65;;;2.00;;
18194;SDS011;9223;50.988;3.162;2023-04-03T19:34:52;4.05;;;2.58;;
18194;SDS011;9223;50.988;3.162;2023-04-03T19:40:55;3.88;;;2.50;;
18194;SDS011;9223;50.988;3.162;2023-04-03T19:46:59;4.88;;;2.67;;
18194;SDS011;9223;50.988;3.162;2023-04-03T19:53:04;4.70;;;2.97;;
18194;SDS011;9223;50.988;3.162;2023-04-03T19:59:11;6.05;;;2.70;;
18194;SDS011;9223;50.988;3.162;2023-04-03T20:05:15;5.40;;;2.85;;
18194;SDS011;9223;50.988;3.162;2023-04-03T20:11:20;5.70;;;2.55;;
18194;SDS011;9223;50.988;3.162;2023-04-03T20:17:24;6.60;;;3.00;;
18194;SDS011;9223;50.988;3.162;2023-04-03T20:23:28;4.63;;;3.22;;
18194;SDS011;9223;50.988;3.162;2023-04-03T20:29:35;5.10;;;2.72;;
18194;SDS011;9223;50.988;3.162;2023-04-03T20:35:38;5.55;;;2.90;;
18194;SDS011;9223;50.988;3.162;2023-04-03T20:41:42;4.95;;;3.03;;
18194;SDS011;9223;50.988;3.162;2023-04-03T20:47:47;4.88;;;2.70;;
18194;SDS011;9223;50.988;3.162;2023-04-03T20:53:52;6.10;;;2.95;;
18194;SDS011;9223;50.988;3.162;2023-04-03T20:59:55;4.22;;;2.45;;
18194;SDS011;9223;50.988;3.162;2023-04-03T21:24:50;5.65;;;2.90;;
18194;SDS011;9223;50.988;3.162;2023-04-03T21:30:53;3.63;;;2.67;;
18194;SDS011;9223;50.988;3.162;2023-04-03T21:36:59;5.00;;;2.60;;
18194;SDS011;9223;50.988;3.162;2023-04-03T21:43:04;4.45;;;2.63;;
18194;SDS011;9223;50.988;3.162;2023-04-03T21:49:08;6.50;;;2.80;;
18194;SDS011;9223;50.988;3.162;2023-04-03T21:55:11;5.80;;;2.63;;
18194;SDS011;9223;50.988;3.162;2023-04-03T22:01:17;4.97;;;2.65;;
18194;SDS011;9223;50.988;3.162;2023-04-03T22:07:21;4.70;;;2.45;;
18194;SDS011;9223;50.988;3.162;2023-04-03T22:13:24;3.92;;;2.50;;
18194;SDS011;9223;50.988;3.162;2023-04-03T22:19:29;6.25;;;2.72;;
18194;SDS011;9223;50.988;3.162;2023-04-03T22:25:33;3.92;;;2.50;;
18194;SDS011;9223;50.988;3.162;2023-04-03T22:31:36;3.42;;;2.95;;
18194;SDS011;9223;50.988;3.162;2023-04-03T22:37:43;4.43;;;3.05;;
18194;SDS011;9223;50.988;3.162;2023-04-03T22:43:47;4.18;;;2.40;;
18194;SDS011;9223;50.988;3.162;2023-04-03T22:49:51;3.53;;;2.30;;
18194;SDS011;9223;50.988;3.162;2023-04-03T22:55:56;4.13;;;2.35;;
18194;SDS011;9223;50.988;3.162;2023-04-03T23:02:00;3.53;;;2.10;;
18194;SDS011;9223;50.988;3.162;2023-04-03T23:08:03;2.90;;;2.58;;
18194;SDS011;9223;50.988;3.162;2023-04-03T23:14:09;5.85;;;2.40;;
18194;SDS011;9223;50.988;3.162;2023-04-03T23:20:12;5.93;;;2.10;;
18194;SDS011;9223;50.988;3.162;2023-04-03T23:26:15;6.28;;;2.40;;
18194;SDS011;9223;50.988;3.162;2023-04-03T23:32:20;6.00;;;2.50;;
18194;SDS011;9223;50.988;3.162;2023-04-03T23:38:24;5.75;;;2.10;;
18194;SDS011;9223;50.988;3.162;2023-04-03T23:44:28;4.68;;;2.45;;
18194;SDS011;9223;50.988;3.162;2023-04-03T23:50:33;4.10;;;2.38;;
18194;SDS011;9223;50.988;3.162;2023-04-03T23:56:37;4.38;;;2.40;;
